Time;durP1;ratioP1;P1;durP2;ratioP2;P2;SDS_P1;SDS_P2;PMS_P1;PMS_P2;Temp;Humidity;BMP_temperature;BMP_pressure;BME280_temperature;BME280_humidity;BME280_pressure;Samples;Min_cycle;Max_cycle;Signal;HPM_P1;HPM_P2
2022/10/26 00:02:17;;;;;;;;;;;18.80;94.10;;;;;;5136299;27;19907;-40
2022/10/26 00:04:42;;;;;;;;;;;18.80;94.00;;;;;;5136389;27;19916;-40
2022/10/26 00:07:08;;;;;;;;;;;18.80;94.10;;;;;;5136285;27;19972;-40
2022/10/26 00:09:33;;;;;;;;;;;18.80;94.10;;;;;;5135835;27;19908;-39
2022/10/26 00:11:58;;;;;;;;;;;18.80;94.10;;;;;;5136475;27;20321;-40
2022/10/26 00:14:24;;;;;;;;;;;18.80;94.10;;;;;;5136116;27;19908;-40
2022/10/26 00:16:50;;;;;;;;;;;18.80;94.10;;;;;;5136134;27;19911;-40
2022/10/26 00:19:15;;;;;;;;;;;18.80;94.00;;;;;;5136059;27;20346;-40
2022/10/26 00:21:41;;;;;;;;;;;18.80;94.00;;;;;;5135930;27;19947;-40
2022/10/26 00:24:06;;;;;;;;;;;18.90;94.00;;;;;;5135789;27;19919;-40
2022/10/26 00:26:32;;;;;;;;;;;18.90;94.00;;;;;;5135787;27;19908;-40
2022/10/26 00:28:57;;;;;;;;;;;18.90;93.90;;;;;;5135802;27;20277;-40
2022/10/26 00:31:23;;;;;;;;;;;19.00;93.90;;;;;;5135713;27;20006;-40
2022/10/26 00:33:55;;;;;;;;;;;19.00;93.80;;;;;;5117607;27;19907;-40
2022/10/26 00:36:21;;;;;;;;;;;19.00;93.80;;;;;;5135983;27;20363;-40
2022/10/26 00:38:50;;;;;;;;;;;19.00;93.80;;;;;;5135535;27;19911;-40
2022/10/26 00:41:17;;;;;;;;;;;19.00;93.70;;;;;;5135459;27;19995;-40
2022/10/26 00:43:42;;;;;;;;;;;19.00;93.70;;;;;;5135678;27;19922;-40
2022/10/26 00:46:10;;;;;;;;;;;19.00;93.70;;;;;;5135766;27;19909;-40
2022/10/26 00:48:44;;;;;;;;;;;19.10;93.70;;;;;;5135641;27;19908;-40
2022/10/26 00:51:19;;;;;;;;;;;19.10;93.70;;;;;;5125979;27;19952;-40
2022/10/26 00:53:45;;;;;;;;;;;19.10;93.70;;;;;;5114766;28;19907;-40
2022/10/26 00:56:10;;;;;;;;;;;19.00;93.70;;;;;;5115016;28;19908;-40
2022/10/26 00:58:36;;;;;;;;;;;19.00;93.70;;;;;;5114694;28;19915;-40
2022/10/26 01:01:02;;;;;;;;;;;19.00;93.70;;;;;;5114630;28;19907;-40
2022/10/26 01:03:28;;;;;;;;;;;19.00;93.70;;;;;;5114798;28;19916;-40
2022/10/26 01:05:56;;;;;;;;;;;19.00;93.80;;;;;;5114934;28;19966;-39
2022/10/26 01:08:22;;;;;;;;;;;19.00;94.00;;;;;;5115116;28;20022;-41
2022/10/26 01:10:48;;;;;;;;;;;19.00;93.80;;;;;;5114677;28;19972;-40
2022/10/26 01:13:14;;;;;;;;;;;18.90;93.80;;;;;;5114495;28;20372;-40
2022/10/26 01:15:59;;;;;;;;;;;18.90;93.90;;;;;;5112305;28;19973;-40
2022/10/26 01:18:24;;;;;;;;;;;18.90;93.90;;;;;;5105134;28;19919;-40
2022/10/26 01:20:50;;;;;;;;;;;18.90;93.90;;;;;;5095584;28;19908;-40
2022/10/26 01:23:18;;;;;;;;;;;18.90;94.00;;;;;;5096233;28;19920;-40
2022/10/26 01:25:55;;;;;;;;;;;18.90;94.00;;;;;;5114420;28;19912;-40
2022/10/26 01:28:24;;;;;;;;;;;18.90;94.00;;;;;;5114465;28;19908;-40
2022/10/26 01:30:50;;;;;;;;;;;18.80;94.00;;;;;;5113745;28;20358;-40
2022/10/26 01:33:18;;;;;;;;;;;18.80;94.00;;;;;;5113506;28;19911;-40
2022/10/26 01:36:06;;;;;;;;;;;18.80;94.10;;;;;;5112707;28;19960;-40
2022/10/26 01:38:32;;;;;;;;;;;18.90;94.10;;;;;;5112779;28;20425;-40
2022/10/26 01:40:59;;;;;;;;;;;18.80;94.10;;;;;;5095836;28;19908;-40
2022/10/26 01:43:27;;;;;;;;;;;18.80;94.10;;;;;;5114157;28;20311;-40
2022/10/26 01:45:54;;;;;;;;;;;18.80;94.20;;;;;;5114439;28;19907;-40
2022/10/26 01:48:19;;;;;;;;;;;18.80;94.20;;;;;;5112971;28;19911;-40
2022/10/26 01:50:46;;;;;;;;;;;18.80;94.10;;;;;;5119599;28;19911;-40
2022/10/26 01:53:15;;;;;;;;;;;18.80;94.20;;;;;;5135211;28;19969;-40
2022/10/26 01:55:51;;;;;;;;;;;18.80;94.10;;;;;;5126152;28;19912;-40
2022/10/26 01:58:30;;;;;;;;;;;18.80;94.40;;;;;;5113908;28;19953;-40
2022/10/26 02:01:11;;;;;;;;;;;18.80;94.20;;;;;;5113987;28;19908;-40
2022/10/26 02:03:53;;;;;;;;;;;18.80;94.20;;;;;;5109227;28;19966;-40
2022/10/26 02:06:25;;;;;;;;;;;18.70;94.20;;;;;;5113950;28;19949;-40
2022/10/26 02:09:11;;;;;;;;;;;18.70;94.20;;;;;;5113850;28;19927;-39
2022/10/26 02:11:38;;;;;;;;;;;18.80;94.20;;;;;;5113263;28;19911;-40
2022/10/26 02:14:07;;;;;;;;;;;18.80;94.20;;;;;;5113926;28;19908;-40
2022/10/26 02:17:01;;;;;;;;;;;18.80;94.20;;;;;;5113979;28;19947;-40
2022/10/26 02:19:27;;;;;;;;;;;18.80;94.10;;;;;;5096234;28;19908;-39
2022/10/26 02:22:03;;;;;;;;;;;18.80;94.10;;;;;;5093192;28;20412;-40
2022/10/26 02:24:30;;;;;;;;;;;18.90;94.20;;;;;;5114037;28;20273;-39
2022/10/26 02:26:56;;;;;;;;;;;18.90;94.00;;;;;;5113587;28;19922;-40
2022/10/26 02:29:23;;;;;;;;;;;18.90;94.00;;;;;;5114147;28;19915;-40
2022/10/26 02:31:50;;;;;;;;;;;18.90;93.90;;;;;;5111544;28;20278;-40
2022/10/26 02:34:18;;;;;;;;;;;18.90;93.90;;;;;;5116461;28;20445;-45
2022/10/26 02:36:45;;;;;;;;;;;19.00;93.90;;;;;;5115672;28;20002;-40
2022/10/26 02:39:13;;;;;;;;;;;19.00;93.90;;;;;;5116810;28;19953;-40
2022/10/26 02:41:39;;;;;;;;;;;19.00;93.90;;;;;;5116733;28;19959;-40
2022/10/26 02:44:11;;;;;;;;;;;19.00;93.90;;;;;;5116379;28;19923;-40
2022/10/26 02:46:37;;;;;;;;;;;19.00;93.80;;;;;;5114489;28;19920;-40
2022/10/26 02:49:03;;;;;;;;;;;19.00;93.80;;;;;;5121443;27;19911;-40
2022/10/26 02:51:46;;;;;;;;;;;19.00;93.80;;;;;;5135193;27;20297;-40
2022/10/26 02:54:24;;;;;;;;;;;19.00;93.80;;;;;;5120263;27;19908;-40
2022/10/26 02:56:58;;;;;;;;;;;19.00;93.80;;;;;;5116753;28;19914;-40
2022/10/26 02:59:25;;;;;;;;;;;19.00;93.80;;;;;;5115800;28;19937;-41
2022/10/26 03:01:51;;;;;;;;;;;19.00;93.80;;;;;;5115922;28;19915;-40
2022/10/26 03:04:16;;;;;;;;;;;19.00;93.90;;;;;;5116901;28;20006;-40
2022/10/26 03:06:50;;;;;;;;;;;18.90;93.90;;;;;;5116888;28;19961;-40
2022/10/26 03:09:15;;;;;;;;;;;19.00;93.90;;;;;;5116843;28;19958;-40
2022/10/26 03:11:41;;;;;;;;;;;18.90;93.90;;;;;;5117117;28;19912;-40
2022/10/26 03:14:06;;;;;;;;;;;18.90;93.90;;;;;;5116680;28;19915;-40
2022/10/26 03:16:32;;;;;;;;;;;18.90;93.90;;;;;;5116702;28;19955;-41
2022/10/26 03:18:57;;;;;;;;;;;18.90;94.00;;;;;;5116795;28;20407;-40
2022/10/26 03:21:23;;;;;;;;;;;18.90;94.00;;;;;;5116711;28;20323;-40
2022/10/26 03:23:49;;;;;;;;;;;18.90;94.00;;;;;;5116478;28;19923;-40
2022/10/26 03:26:14;;;;;;;;;;;18.90;94.00;;;;;;5117147;28;19912;-40
2022/10/26 03:28:40;;;;;;;;;;;18.80;94.10;;;;;;5116793;28;19915;-39
2022/10/26 03:31:05;;;;;;;;;;;18.80;94.10;;;;;;5116674;28;19915;-40
2022/10/26 03:33:31;;;;;;;;;;;18.80;94.10;;;;;;5116803;28;20014;-40
2022/10/26 03:35:56;;;;;;;;;;;18.80;94.10;;;;;;5116622;28;20376;-40
2022/10/26 03:38:22;;;;;;;;;;;18.80;94.10;;;;;;5116912;28;19908;-40
2022/10/26 03:40:47;;;;;;;;;;;18.80;94.10;;;;;;5116576;28;19935;-40
2022/10/26 03:43:13;;;;;;;;;;;18.80;94.10;;;;;;5115348;28;20018;-40
2022/10/26 03:45:38;;;;;;;;;;;18.80;94.10;;;;;;5116768;28;19908;-40
2022/10/26 03:48:04;;;;;;;;;;;18.80;94.10;;;;;;5116348;28;19908;-40
2022/10/26 03:50:29;;;;;;;;;;;18.80;94.10;;;;;;5119972;27;20440;-39
2022/10/26 03:52:55;;;;;;;;;;;18.80;94.10;;;;;;5118391;27;20044;-40
2022/10/26 03:55:20;;;;;;;;;;;18.80;94.10;;;;;;5136791;27;19960;-39
2022/10/26 03:57:46;;;;;;;;;;;18.80;94.20;;;;;;5136811;27;19908;-40
2022/10/26 04:00:14;;;;;;;;;;;18.80;94.20;;;;;;5136695;27;19908;-40
2022/10/26 04:02:40;;;;;;;;;;;18.80;94.10;;;;;;5136980;27;19908;-40
2022/10/26 04:05:06;;;;;;;;;;;18.80;94.10;;;;;;5136443;27;19911;-39
2022/10/26 04:07:32;;;;;;;;;;;18.80;94.10;;;;;;5136519;27;19964;-39
2022/10/26 04:09:57;;;;;;;;;;;18.80;94.10;;;;;;5136458;27;19908;-39
2022/10/26 04:12:23;;;;;;;;;;;18.80;94.10;;;;;;5135951;27;19908;-39
2022/10/26 04:14:48;;;;;;;;;;;18.80;94.10;;;;;;5136355;27;19908;-39
2022/10/26 04:17:13;;;;;;;;;;;18.90;94.10;;;;;;5136354;27;19908;-39
2022/10/26 04:19:39;;;;;;;;;;;18.90;94.00;;;;;;5117809;27;19914;-39
2022/10/26 04:22:04;;;;;;;;;;;18.90;94.00;;;;;;5135888;27;20277;-40
2022/10/26 04:24:30;;;;;;;;;;;18.90;93.90;;;;;;5117623;27;19981;-39
2022/10/26 04:26:56;;;;;;;;;;;18.90;93.90;;;;;;5136066;27;19912;-39
2022/10/26 04:29:21;;;;;;;;;;;18.90;93.90;;;;;;5135803;27;19907;-39
2022/10/26 04:31:46;;;;;;;;;;;18.90;93.90;;;;;;5135792;27;20222;-39
2022/10/26 04:34:12;;;;;;;;;;;18.90;93.90;;;;;;5136203;27;19908;-39
2022/10/26 04:36:37;;;;;;;;;;;19.00;93.90;;;;;;5136281;27;19952;-39
2022/10/26 04:39:03;;;;;;;;;;;18.90;93.80;;;;;;5135781;27;19968;-39
2022/10/26 04:41:28;;;;;;;;;;;19.00;93.80;;;;;;5135462;27;19907;-39
2022/10/26 04:43:54;;;;;;;;;;;19.00;93.80;;;;;;5135157;27;19919;-39
2022/10/26 04:46:19;;;;;;;;;;;19.00;93.80;;;;;;5134317;27;19990;-39
2022/10/26 04:48:46;;;;;;;;;;;19.00;93.80;;;;;;5135471;27;19915;-39
2022/10/26 04:51:11;;;;;;;;;;;19.00;93.80;;;;;;5107429;28;20358;-39
2022/10/26 04:53:37;;;;;;;;;;;19.00;93.80;;;;;;5114848;28;19914;-39
2022/10/26 04:56:02;;;;;;;;;;;19.00;93.80;;;;;;5114707;28;19907;-39
2022/10/26 04:58:28;;;;;;;;;;;18.90;93.80;;;;;;5114777;28;19939;-39
2022/10/26 05:00:54;;;;;;;;;;;19.00;93.80;;;;;;5114419;28;20290;-39
2022/10/26 05:06:22;;;;;;;;;;;18.90;93.90;;;;;;5111790;28;20011;-40
2022/10/26 05:08:48;;;;;;;;;;;18.90;93.90;;;;;;5112818;28;19940;-40
2022/10/26 05:11:14;;;;;;;;;;;18.90;93.90;;;;;;5095117;28;19907;-40
2022/10/26 05:13:39;;;;;;;;;;;18.90;93.90;;;;;;5113610;28;20360;-39
2022/10/26 05:16:05;;;;;;;;;;;18.80;94.00;;;;;;5114286;28;20006;-40
2022/10/26 05:18:30;;;;;;;;;;;18.90;94.00;;;;;;5113341;28;19960;-39
2022/10/26 05:20:56;;;;;;;;;;;18.90;94.00;;;;;;5112518;28;19908;-40
2022/10/26 05:23:21;;;;;;;;;;;18.80;94.00;;;;;;5115615;28;19977;-39
2022/10/26 05:25:47;;;;;;;;;;;18.80;94.00;;;;;;5085759;28;19912;-39
2022/10/26 05:28:13;;;;;;;;;;;18.80;94.00;;;;;;5107619;28;19912;-39
2022/10/26 05:30:43;;;;;;;;;;;18.80;94.00;;;;;;5100451;28;19912;-40
2022/10/26 05:33:09;;;;;;;;;;;18.80;94.00;;;;;;5113865;28;20342;-40
2022/10/26 05:35:35;;;;;;;;;;;18.80;94.00;;;;;;5113563;28;20234;-41
2022/10/26 05:38:07;;;;;;;;;;;18.80;94.00;;;;;;5113180;28;20002;-40
2022/10/26 05:40:33;;;;;;;;;;;18.90;94.00;;;;;;5114066;28;19908;-39
2022/10/26 05:42:59;;;;;;;;;;;18.90;94.00;;;;;;5094724;28;20255;-40
2022/10/26 05:45:25;;;;;;;;;;;18.80;94.00;;;;;;5094708;28;20007;-40
2022/10/26 05:47:50;;;;;;;;;;;18.80;94.00;;;;;;5112733;28;20003;-40
2022/10/26 05:50:16;;;;;;;;;;;18.90;94.10;;;;;;5111651;28;19912;-40
2022/10/26 05:52:42;;;;;;;;;;;18.90;94.10;;;;;;5111209;28;19912;-41
2022/10/26 05:55:08;;;;;;;;;;;18.90;94.20;;;;;;5110849;28;19999;-40
2022/10/26 05:57:35;;;;;;;;;;;18.90;94.20;;;;;;5110674;28;19912;-41
2022/10/26 06:00:00;;;;;;;;;;;18.90;94.20;;;;;;5111830;28;19911;-43
2022/10/26 06:02:32;;;;;;;;;;;18.90;94.20;;;;;;5112555;28;19952;-45
2022/10/26 06:05:01;;;;;;;;;;;18.90;94.20;;;;;;5112961;28;19951;-45
2022/10/26 06:07:27;;;;;;;;;;;18.90;94.20;;;;;;5114852;28;20006;-50
2022/10/26 06:09:52;;;;;;;;;;;18.90;94.20;;;;;;5115342;28;22026;-46
2022/10/26 06:12:18;;;;;;;;;;;18.90;94.30;;;;;;5113017;28;19908;-44
2022/10/26 06:14:43;;;;;;;;;;;18.90;94.30;;;;;;5116760;28;20251;-52
2022/10/26 06:17:28;;;;;;;;;;;18.90;94.30;;;;;;5115202;28;19908;-45
2022/10/26 06:19:53;;;;;;;;;;;18.90;94.30;;;;;;5116925;27;20335;-45
2022/10/26 06:22:28;;;;;;;;;;;19.00;94.30;;;;;;5115600;28;19961;-61
2022/10/26 06:25:12;;;;;;;;;;;19.00;94.40;;;;;;5113491;28;20230;-46
2022/10/26 06:28:06;;;;;;;;;;;18.90;94.30;;;;;;5117475;28;19904;-47
2022/10/26 06:30:31;;;;;;;;;;;19.00;94.40;;;;;;5098084;28;20274;-47
2022/10/26 06:32:58;;;;;;;;;;;19.00;94.40;;;;;;5115505;28;19908;-55
2022/10/26 06:35:23;;;;;;;;;;;19.00;94.40;;;;;;5114847;28;19946;-47
2022/10/26 06:37:49;;;;;;;;;;;19.00;94.40;;;;;;5099285;28;19951;-47
2022/10/26 06:40:16;;;;;;;;;;;19.00;94.40;;;;;;5113150;28;20333;-48
2022/10/26 06:42:41;;;;;;;;;;;19.00;94.40;;;;;;5096819;28;20259;-46
2022/10/26 06:45:10;;;;;;;;;;;19.00;94.40;;;;;;5114363;28;19907;-53
2022/10/26 06:47:39;;;;;;;;;;;19.00;94.40;;;;;;5115096;28;20007;-46
2022/10/26 06:50:25;;;;;;;;;;;19.00;94.40;;;;;;5116839;28;19939;-50
2022/10/26 06:52:56;;;;;;;;;;;19.00;94.40;;;;;;5096318;28;19995;-47
2022/10/26 06:55:22;;;;;;;;;;;19.00;94.40;;;;;;5096867;28;19966;-48
2022/10/26 06:57:48;;;;;;;;;;;19.00;94.40;;;;;;5115378;28;19914;-49
2022/10/26 07:00:15;;;;;;;;;;;19.00;94.40;;;;;;5098989;28;19927;-49
2022/10/26 07:02:41;;;;;;;;;;;19.00;94.50;;;;;;5116348;28;20342;-48
2022/10/26 07:05:11;;;;;;;;;;;19.00;94.50;;;;;;5113344;28;19911;-50
2022/10/26 07:07:41;;;;;;;;;;;19.00;94.50;;;;;;5098645;28;19922;-51
2022/10/26 07:10:07;;;;;;;;;;;19.00;94.50;;;;;;5115252;28;19907;-45
2022/10/26 07:12:32;;;;;;;;;;;19.00;94.50;;;;;;5116060;28;19915;-48
2022/10/26 07:14:59;;;;;;;;;;;19.00;94.50;;;;;;5115393;28;19907;-49
2022/10/26 07:17:26;;;;;;;;;;;19.00;94.50;;;;;;5115589;28;19911;-43
2022/10/26 07:19:51;;;;;;;;;;;19.00;94.50;;;;;;5113108;28;20364;-48
2022/10/26 07:22:17;;;;;;;;;;;19.00;94.50;;;;;;5112360;28;20006;-50
2022/10/26 07:24:42;;;;;;;;;;;19.00;94.50;;;;;;5117298;27;19916;-48
2022/10/26 07:27:08;;;;;;;;;;;19.00;94.50;;;;;;5097108;28;19919;-50
2022/10/26 07:29:34;;;;;;;;;;;19.00;94.50;;;;;;5114328;28;19918;-46
2022/10/26 07:31:59;;;;;;;;;;;19.00;94.50;;;;;;5111858;28;19912;-50
2022/10/26 07:34:25;;;;;;;;;;;19.00;94.50;;;;;;5115079;28;19912;-50
2022/10/26 07:36:50;;;;;;;;;;;19.00;94.50;;;;;;5113467;28;19920;-46
2022/10/26 07:39:16;;;;;;;;;;;19.00;94.50;;;;;;5116018;28;19908;-51
2022/10/26 07:41:41;;;;;;;;;;;19.00;94.50;;;;;;5096822;28;19957;-48
2022/10/26 07:44:07;;;;;;;;;;;19.00;94.50;;;;;;5097628;28;19919;-48
2022/10/26 07:46:32;;;;;;;;;;;19.00;94.50;;;;;;5114055;28;19908;-49
2022/10/26 07:48:58;;;;;;;;;;;19.00;94.50;;;;;;5116596;28;20347;-49
2022/10/26 07:51:23;;;;;;;;;;;19.00;94.50;;;;;;5114948;27;19908;-49
2022/10/26 07:53:49;;;;;;;;;;;18.90;94.50;;;;;;5114013;28;19964;-52
2022/10/26 07:56:14;;;;;;;;;;;19.00;94.60;;;;;;5114956;28;20285;-47
2022/10/26 07:58:40;;;;;;;;;;;19.00;94.50;;;;;;5109731;28;19912;-47
2022/10/26 08:01:06;;;;;;;;;;;19.00;94.60;;;;;;5114054;28;19916;-50
2022/10/26 08:03:32;;;;;;;;;;;19.00;94.60;;;;;;5113102;28;20282;-48
2022/10/26 08:05:57;;;;;;;;;;;19.00;94.60;;;;;;5114835;28;19912;-50
2022/10/26 08:08:23;;;;;;;;;;;19.00;94.60;;;;;;5116170;28;19927;-49
2022/10/26 08:10:48;;;;;;;;;;;19.00;94.60;;;;;;5113874;28;19953;-51
2022/10/26 08:13:14;;;;;;;;;;;19.00;94.60;;;;;;5114750;28;19994;-48
2022/10/26 08:15:40;;;;;;;;;;;19.00;94.60;;;;;;5110109;28;20053;-50
2022/10/26 08:18:05;;;;;;;;;;;19.00;94.60;;;;;;5115608;28;20358;-46
2022/10/26 08:20:31;;;;;;;;;;;19.00;94.60;;;;;;5112033;28;21654;-47
2022/10/26 08:22:57;;;;;;;;;;;19.00;94.60;;;;;;5112170;28;20323;-48
2022/10/26 08:25:22;;;;;;;;;;;19.00;94.60;;;;;;5112459;28;19947;-52
2022/10/26 08:27:48;;;;;;;;;;;19.00;94.60;;;;;;5113160;28;19943;-50
2022/10/26 08:30:13;;;;;;;;;;;19.00;94.60;;;;;;5095003;28;19919;-49
2022/10/26 08:32:39;;;;;;;;;;;19.00;94.60;;;;;;5113351;28;19957;-50
2022/10/26 08:35:05;;;;;;;;;;;19.00;94.60;;;;;;5113929;28;19912;-50
2022/10/26 08:37:30;;;;;;;;;;;19.00;94.70;;;;;;5111839;28;19974;-49
2022/10/26 08:39:55;;;;;;;;;;;19.00;94.70;;;;;;5111808;28;19923;-47
2022/10/26 08:42:29;;;;;;;;;;;19.00;94.70;;;;;;5113919;28;19907;-47
2022/10/26 08:44:57;;;;;;;;;;;19.00;94.70;;;;;;5095106;28;19923;-49
2022/10/26 08:47:25;;;;;;;;;;;19.00;94.70;;;;;;5101831;28;19911;-50
2022/10/26 08:50:17;;;;;;;;;;;19.00;94.70;;;;;;5094773;28;19912;-52
2022/10/26 08:52:46;;;;;;;;;;;19.00;94.70;;;;;;5107485;28;19934;-47
2022/10/26 08:55:16;;;;;;;;;;;19.00;94.70;;;;;;5112706;28;19911;-51
2022/10/26 08:57:43;;;;;;;;;;;19.00;94.70;;;;;;5112225;28;19912;-38
2022/10/26 09:00:14;;;;;;;;;;;19.00;94.70;;;;;;5114884;28;19930;-38
2022/10/26 09:02:39;;;;;;;;;;;19.00;94.70;;;;;;5122180;27;19911;-40
2022/10/26 09:05:08;;;;;;;;;;;19.00;94.70;;;;;;5114602;28;20439;-37
2022/10/26 09:07:52;;;;;;;;;;;19.00;94.70;;;;;;5124043;27;20404;-40
2022/10/26 09:10:27;;;;;;;;;;;19.00;94.70;;;;;;5129914;27;19918;-39
2022/10/26 09:12:55;;;;;;;;;;;19.00;94.70;;;;;;5134970;27;19908;-39
2022/10/26 09:15:43;;;;;;;;;;;19.00;94.70;;;;;;5124108;27;19908;-39
2022/10/26 09:18:24;;;;;;;;;;;19.00;94.70;;;;;;5116943;27;19919;-43
2022/10/26 09:20:56;;;;;;;;;;;19.00;94.70;;;;;;5128900;27;19912;-40
2022/10/26 09:23:35;;;;;;;;;;;19.00;94.70;;;;;;5113817;28;19915;-41
2022/10/26 09:26:01;;;;;;;;;;;19.00;94.70;;;;;;5114326;28;19981;-40
2022/10/26 09:28:33;;;;;;;;;;;19.00;94.70;;;;;;5122249;27;19912;-40
2022/10/26 09:30:59;;;;;;;;;;;19.00;94.70;;;;;;5117212;28;20377;-40
2022/10/26 09:33:25;;;;;;;;;;;19.00;94.70;;;;;;5114358;28;19915;-39
2022/10/26 09:35:51;;;;;;;;;;;19.00;94.70;;;;;;5125918;27;19911;-41
2022/10/26 09:38:28;;;;;;;;;;;19.00;94.70;;;;;;5127198;28;20355;-39
2022/10/26 09:41:19;;;;;;;;;;;19.00;94.80;;;;;;5112855;28;19912;-39
2022/10/26 09:43:49;;;;;;;;;;;19.00;94.80;;;;;;5127258;28;19919;-39
2022/10/26 09:46:16;;;;;;;;;;;19.00;94.80;;;;;;5134816;28;20002;-38
2022/10/26 09:48:46;;;;;;;;;;;19.00;94.80;;;;;;5124298;28;19918;-39
2022/10/26 09:51:11;;;;;;;;;;;19.00;94.80;;;;;;5116073;28;19912;-39
2022/10/26 09:53:37;;;;;;;;;;;19.00;94.80;;;;;;5114245;28;20357;-38
2022/10/26 09:56:07;;;;;;;;;;;19.00;94.80;;;;;;5121397;28;19956;-39
2022/10/26 09:58:39;;;;;;;;;;;19.00;94.80;;;;;;5113571;28;20006;-39
2022/10/26 10:01:04;;;;;;;;;;;19.00;94.80;;;;;;5131115;28;19919;-38
2022/10/26 10:03:30;;;;;;;;;;;19.00;94.80;;;;;;5123232;28;19923;-39
2022/10/26 10:06:16;;;;;;;;;;;19.00;94.80;;;;;;5134755;28;20003;-38
2022/10/26 10:08:42;;;;;;;;;;;19.00;94.80;;;;;;5123673;28;19928;-40
2022/10/26 10:11:10;;;;;;;;;;;19.00;94.80;;;;;;5123137;28;19911;-39
2022/10/26 10:13:37;;;;;;;;;;;19.10;94.90;;;;;;5127135;28;20135;-40
2022/10/26 10:16:04;;;;;;;;;;;19.00;94.80;;;;;;5112167;28;19914;-40
2022/10/26 10:18:30;;;;;;;;;;;19.10;94.80;;;;;;5113531;28;19912;-39
2022/10/26 10:20:57;;;;;;;;;;;19.00;94.80;;;;;;5118851;28;20360;-39
2022/10/26 10:23:30;;;;;;;;;;;19.00;94.80;;;;;;5134022;28;19916;-39
2022/10/26 10:26:01;;;;;;;;;;;19.10;94.80;;;;;;5119579;28;20396;-38
2022/10/26 10:28:28;;;;;;;;;;;19.10;94.80;;;;;;5113840;28;19908;-41
2022/10/26 10:30:56;;;;;;;;;;;19.10;94.80;;;;;;5126378;28;19964;-40
2022/10/26 10:33:21;;;;;;;;;;;19.00;94.80;;;;;;5132849;28;19911;-41
2022/10/26 10:35:49;;;;;;;;;;;19.10;94.90;;;;;;5132654;28;20358;-39
2022/10/26 10:38:19;;;;;;;;;;;19.10;94.90;;;;;;5113810;28;19908;-38
2022/10/26 10:40:49;;;;;;;;;;;19.10;94.90;;;;;;5113827;28;19908;-39
2022/10/26 10:43:14;;;;;;;;;;;19.10;94.90;;;;;;5115556;28;19926;-40
2022/10/26 10:45:45;;;;;;;;;;;19.00;94.90;;;;;;5121411;28;19911;-40
2022/10/26 10:48:10;;;;;;;;;;;19.00;94.80;;;;;;5127314;28;20401;-39
2022/10/26 10:50:36;;;;;;;;;;;19.00;94.80;;;;;;5126022;28;19912;-40
2022/10/26 10:53:11;;;;;;;;;;;19.10;94.80;;;;;;5094929;28;19908;-39
2022/10/26 10:55:37;;;;;;;;;;;19.10;94.80;;;;;;5096350;28;19991;-38
2022/10/26 10:58:19;;;;;;;;;;;19.10;94.80;;;;;;5096513;28;19950;-39
2022/10/26 11:00:47;;;;;;;;;;;19.00;94.80;;;;;;5096835;28;19998;-38
2022/10/26 11:03:31;;;;;;;;;;;19.00;94.80;;;;;;5103636;27;20426;-39
2022/10/26 11:06:10;;;;;;;;;;;19.10;94.80;;;;;;5113178;28;20388;-39
2022/10/26 11:08:54;;;;;;;;;;;19.10;94.80;;;;;;5115675;28;19926;-39
2022/10/26 11:11:22;;;;;;;;;;;19.00;94.80;;;;;;5111228;28;19916;-39
2022/10/26 11:13:54;;;;;;;;;;;19.10;94.80;;;;;;5115302;28;19912;-39
2022/10/26 11:16:23;;;;;;;;;;;19.00;94.80;;;;;;5113701;28;20366;-39
2022/10/26 11:18:55;;;;;;;;;;;19.10;94.80;;;;;;5114442;28;19951;-39
2022/10/26 11:21:27;;;;;;;;;;;19.10;94.80;;;;;;5114135;28;19912;-39
2022/10/26 11:23:56;;;;;;;;;;;19.10;94.80;;;;;;5112828;28;19927;-39
2022/10/26 11:26:32;;;;;;;;;;;19.10;94.80;;;;;;5115869;28;19981;-39
2022/10/26 11:29:01;;;;;;;;;;;19.10;94.80;;;;;;5115791;28;19912;-39
2022/10/26 11:31:30;;;;;;;;;;;19.10;94.80;;;;;;5115235;28;19934;-39
2022/10/26 11:34:07;;;;;;;;;;;19.10;94.70;;;;;;5116107;28;19912;-37
2022/10/26 11:36:33;;;;;;;;;;;19.00;94.70;;;;;;5109194;28;19911;-40
2022/10/26 11:39:08;;;;;;;;;;;19.00;94.70;;;;;;5113759;28;20017;-40
2022/10/26 11:41:46;;;;;;;;;;;19.00;94.70;;;;;;5115185;28;19912;-40
2022/10/26 11:44:17;;;;;;;;;;;19.00;94.90;;;;;;5114181;28;20018;-40
2022/10/26 11:46:46;;;;;;;;;;;19.00;94.70;;;;;;5115306;27;19919;-41
2022/10/26 11:49:30;;;;;;;;;;;19.10;94.70;;;;;;5113806;28;19907;-42
2022/10/26 11:52:02;;;;;;;;;;;19.00;94.70;;;;;;5118627;27;19908;-43
2022/10/26 11:54:30;;;;;;;;;;;19.00;94.70;;;;;;5116013;28;19904;-43
2022/10/26 11:56:56;;;;;;;;;;;19.00;94.70;;;;;;5115922;28;20066;-42
2022/10/26 11:59:23;;;;;;;;;;;19.10;94.70;;;;;;5116344;28;19903;-41
2022/10/26 12:01:51;;;;;;;;;;;19.10;94.70;;;;;;5127319;27;19947;-43
2022/10/26 12:04:18;;;;;;;;;;;19.10;94.80;;;;;;5119260;27;19923;-46
2022/10/26 12:06:45;;;;;;;;;;;19.00;94.80;;;;;;5122457;27;20360;-43
2022/10/26 12:09:18;;;;;;;;;;;19.00;94.80;;;;;;5115594;28;19904;-44
2022/10/26 12:11:50;;;;;;;;;;;19.00;94.80;;;;;;5115519;28;19904;-42
2022/10/26 12:14:42;;;;;;;;;;;19.00;94.80;;;;;;5102424;28;19911;-42
2022/10/26 12:17:20;;;;;;;;;;;19.00;94.80;;;;;;5103310;27;19908;-41
2022/10/26 12:19:57;;;;;;;;;;;19.00;94.80;;;;;;5133279;27;19952;-42
2022/10/26 12:22:25;;;;;;;;;;;19.00;94.80;;;;;;5097260;28;19908;-41
2022/10/26 12:25:09;;;;;;;;;;;19.00;94.80;;;;;;5115529;28;19919;-42
2022/10/26 12:27:37;;;;;;;;;;;19.00;94.90;;;;;;5117145;27;19972;-42
2022/10/26 12:30:18;;;;;;;;;;;19.00;94.90;;;;;;5115006;28;20339;-43
2022/10/26 12:32:43;;;;;;;;;;;19.00;94.90;;;;;;5131999;27;19908;-42
2022/10/26 12:35:27;;;;;;;;;;;19.00;94.90;;;;;;5115511;28;19910;-47
2022/10/26 12:37:53;;;;;;;;;;;19.00;94.90;;;;;;5132274;27;19908;-48
2022/10/26 12:40:39;;;;;;;;;;;19.00;94.90;;;;;;5123840;27;19998;-46
2022/10/26 12:43:14;;;;;;;;;;;19.10;94.90;;;;;;5115191;28;19904;-45
2022/10/26 12:45:40;;;;;;;;;;;19.00;94.90;;;;;;5101191;28;20358;-46
2022/10/26 12:48:20;;;;;;;;;;;19.00;94.90;;;;;;5115233;28;20366;-45
2022/10/26 12:50:45;;;;;;;;;;;19.00;94.90;;;;;;5129802;27;19904;-47
2022/10/26 12:53:12;;;;;;;;;;;19.00;94.90;;;;;;5115404;27;19903;-47
2022/10/26 12:55:38;;;;;;;;;;;19.00;94.90;;;;;;5094631;28;20007;-44
2022/10/26 12:58:22;;;;;;;;;;;19.00;94.90;;;;;;5116833;27;20358;-44
2022/10/26 13:01:10;;;;;;;;;;;19.00;94.90;;;;;;5135316;27;19903;-44
2022/10/26 13:03:51;;;;;;;;;;;19.00;94.90;;;;;;5120279;27;19920;-45
2022/10/26 13:06:28;;;;;;;;;;;19.10;95.00;;;;;;5127517;27;19907;-44
2022/10/26 13:08:54;;;;;;;;;;;19.00;94.90;;;;;;5114512;28;20343;-45
2022/10/26 13:11:30;;;;;;;;;;;19.00;94.90;;;;;;5126479;27;19907;-42
2022/10/26 13:13:57;;;;;;;;;;;19.10;95.00;;;;;;5120007;27;20298;-46
2022/10/26 13:16:23;;;;;;;;;;;19.10;95.20;;;;;;5126037;27;19947;-44
2022/10/26 13:18:49;;;;;;;;;;;19.10;94.90;;;;;;5096274;28;19911;-43
2022/10/26 13:21:16;;;;;;;;;;;19.10;95.00;;;;;;5126617;27;19911;-43
2022/10/26 13:23:44;;;;;;;;;;;19.10;94.90;;;;;;5126131;27;19973;-48
2022/10/26 13:26:13;;;;;;;;;;;19.10;95.00;;;;;;5123156;27;19914;-46
2022/10/26 13:28:39;;;;;;;;;;;19.10;95.00;;;;;;5134664;27;20358;-46
2022/10/26 13:31:22;;;;;;;;;;;19.10;95.00;;;;;;5124331;27;19999;-43
2022/10/26 13:33:50;;;;;;;;;;;19.10;95.00;;;;;;5114237;28;20254;-44
2022/10/26 13:36:26;;;;;;;;;;;19.10;95.00;;;;;;5130714;27;19920;-51
2022/10/26 13:38:52;;;;;;;;;;;19.10;95.00;;;;;;5124052;28;19940;-45
2022/10/26 13:41:23;;;;;;;;;;;19.10;94.90;;;;;;5120692;28;19914;-46
2022/10/26 13:43:50;;;;;;;;;;;19.10;94.90;;;;;;5121216;28;19990;-48
2022/10/26 13:46:23;;;;;;;;;;;19.10;94.90;;;;;;5128567;28;19918;-45
2022/10/26 13:48:49;;;;;;;;;;;19.10;95.00;;;;;;5122996;28;19907;-43
2022/10/26 13:51:20;;;;;;;;;;;19.10;94.90;;;;;;5126491;28;19994;-44
2022/10/26 13:53:49;;;;;;;;;;;19.10;95.00;;;;;;5126675;28;20347;-46
2022/10/26 13:56:20;;;;;;;;;;;19.10;95.00;;;;;;5122967;28;19908;-45
2022/10/26 13:58:51;;;;;;;;;;;19.10;95.00;;;;;;5124610;28;20002;-44
2022/10/26 14:01:24;;;;;;;;;;;19.10;95.00;;;;;;5119078;28;20342;-47
2022/10/26 14:03:49;;;;;;;;;;;19.10;95.00;;;;;;5114933;28;20295;-46
2022/10/26 14:06:18;;;;;;;;;;;19.10;95.00;;;;;;5134381;28;20382;-43
2022/10/26 14:08:46;;;;;;;;;;;19.10;95.00;;;;;;5134462;28;20002;-46
2022/10/26 14:11:13;;;;;;;;;;;19.10;95.00;;;;;;5112023;28;19952;-49
2022/10/26 14:13:38;;;;;;;;;;;19.10;95.00;;;;;;5109927;28;20342;-50
2022/10/26 14:16:06;;;;;;;;;;;19.10;94.90;;;;;;5107326;28;19987;-43
2022/10/26 14:18:32;;;;;;;;;;;19.10;95.00;;;;;;5112490;28;19915;-45
2022/10/26 14:21:02;;;;;;;;;;;19.10;94.90;;;;;;5119746;28;19908;-45
2022/10/26 14:23:31;;;;;;;;;;;19.10;95.00;;;;;;5118437;28;19915;-46
2022/10/26 14:25:57;;;;;;;;;;;19.10;95.00;;;;;;5129764;28;19939;-42
2022/10/26 14:28:32;;;;;;;;;;;19.10;94.90;;;;;;5121580;27;19907;-42
2022/10/26 14:31:10;;;;;;;;;;;19.10;95.00;;;;;;5138621;27;19956;-46